sensor_id;sensor_type;location;lat;lon;timestamp;pressure;altitude;pressure_sealevel;temperature;humidity
59367;BME280;45163;47.690;11.770;2023-07-13T00:01:29;93438.94;;;16.87;100.00
59367;BME280;45163;47.690;11.770;2023-07-13T00:03:56;93442.75;;;16.89;100.00
59367;BME280;45163;47.690;11.770;2023-07-13T00:06:23;93446.75;;;16.88;100.00
59367;BME280;45163;47.690;11.770;2023-07-13T00:08:49;93436.94;;;16.73;100.00
59367;BME280;45163;47.690;11.770;2023-07-13T00:11:16;93441.28;;;16.79;100.00
59367;BME280;45163;47.690;11.770;2023-07-13T00:13:43;93429.69;;;16.75;100.00
59367;BME280;45163;47.690;11.770;2023-07-13T00:16:10;93420.59;;;16.84;100.00
59367;BME280;45163;47.690;11.770;2023-07-13T00:18:37;93422.81;;;16.71;100.00
59367;BME280;45163;47.690;11.770;2023-07-13T00:21:03;93429.63;;;16.84;100.00
59367;BME280;45163;47.690;11.770;2023-07-13T00:23:34;93420.50;;;16.78;100.00
59367;BME280;45163;47.690;11.770;2023-07-13T00:26:01;93431.56;;;16.69;100.00
59367;BME280;45163;47.690;11.770;2023-07-13T00:28:28;93426.41;;;16.62;100.00
59367;BME280;45163;47.690;11.770;2023-07-13T00:30:54;93413.56;;;16.59;100.00
59367;BME280;45163;47.690;11.770;2023-07-13T00:33:20;93407.41;;;16.64;100.00
59367;BME280;45163;47.690;11.770;2023-07-13T00:35:46;93414.13;;;16.63;100.00
59367;BME280;45163;47.690;11.770;2023-07-13T00:38:12;93409.59;;;16.60;100.00
59367;BME280;45163;47.690;11.770;2023-07-13T00:40:38;93401.84;;;16.73;100.00
59367;BME280;45163;47.690;11.770;2023-07-13T00:43:28;93386.28;;;16.61;100.00
59367;BME280;45163;47.690;11.770;2023-07-13T00:48:38;93408.53;;;16.81;100.00
59367;BME280;45163;47.690;11.770;2023-07-13T00:51:04;93422.00;;;16.79;100.00
59367;BME280;45163;47.690;11.770;2023-07-13T00:53:32;93414.78;;;16.82;100.00
59367;BME280;45163;47.690;11.770;2023-07-13T00:55:59;93406.63;;;16.63;100.00
59367;BME280;45163;47.690;11.770;2023-07-13T00:58:26;93399.59;;;16.62;100.00
59367;BME280;45163;47.690;11.770;2023-07-13T01:00:53;93396.19;;;16.67;100.00
59367;BME280;45163;47.690;11.770;2023-07-13T01:03:19;93399.19;;;16.79;100.00
59367;BME280;45163;47.690;11.770;2023-07-13T01:05:47;93397.50;;;16.81;100.00
59367;BME280;45163;47.690;11.770;2023-07-13T01:08:14;93388.34;;;16.75;100.00
59367;BME280;45163;47.690;11.770;2023-07-13T01:10:40;93374.97;;;16.83;100.00
59367;BME280;45163;47.690;11.770;2023-07-13T01:13:08;93374.69;;;16.81;100.00
59367;BME280;45163;47.690;11.770;2023-07-13T01:15:46;93381.22;;;16.83;100.00
59367;BME280;45163;47.690;11.770;2023-07-13T01:18:15;93378.47;;;16.59;100.00
59367;BME280;45163;47.690;11.770;2023-07-13T01:23:25;93381.91;;;16.78;100.00
59367;BME280;45163;47.690;11.770;2023-07-13T01:25:52;93382.41;;;16.67;100.00
59367;BME280;45163;47.690;11.770;2023-07-13T01:28:19;93384.88;;;16.65;100.00
59367;BME280;45163;47.690;11.770;2023-07-13T01:30:45;93395.81;;;16.60;100.00
59367;BME280;45163;47.690;11.770;2023-07-13T01:33:17;93403.75;;;16.58;100.00
59367;BME280;45163;47.690;11.770;2023-07-13T01:35:45;93399.94;;;16.55;100.00
59367;BME280;45163;47.690;11.770;2023-07-13T01:38:14;93403.53;;;16.47;100.00
59367;BME280;45163;47.690;11.770;2023-07-13T01:40:40;93401.84;;;16.49;100.00
59367;BME280;45163;47.690;11.770;2023-07-13T01:43:06;93407.25;;;16.43;100.00
59367;BME280;45163;47.690;11.770;2023-07-13T01:45:33;93411.69;;;16.41;100.00
59367;BME280;45163;47.690;11.770;2023-07-13T01:47:59;93412.28;;;16.45;100.00
59367;BME280;45163;47.690;11.770;2023-07-13T01:50:25;93414.28;;;16.44;100.00
59367;BME280;45163;47.690;11.770;2023-07-13T01:52:52;93410.59;;;16.48;100.00
59367;BME280;45163;47.690;11.770;2023-07-13T01:55:20;93405.44;;;16.40;100.00
59367;BME280;45163;47.690;11.770;2023-07-13T01:57:46;93406.50;;;16.43;100.00
59367;BME280;45163;47.690;11.770;2023-07-13T02:00:13;93417.53;;;16.34;100.00
59367;BME280;45163;47.690;11.770;2023-07-13T02:02:39;93412.78;;;16.34;100.00
59367;BME280;45163;47.690;11.770;2023-07-13T02:05:05;93420.31;;;16.34;100.00
59367;BME280;45163;47.690;11.770;2023-07-13T02:07:32;93420.41;;;16.15;100.00
59367;BME280;45163;47.690;11.770;2023-07-13T02:09:58;93422.63;;;16.02;100.00
59367;BME280;45163;47.690;11.770;2023-07-13T02:12:24;93416.97;;;16.06;100.00
59367;BME280;45163;47.690;11.770;2023-07-13T02:14:50;93417.06;;;16.11;100.00
59367;BME280;45163;47.690;11.770;2023-07-13T02:17:16;93421.19;;;16.16;100.00
59367;BME280;45163;47.690;11.770;2023-07-13T02:19:42;93419.31;;;16.22;100.00
59367;BME280;45163;47.690;11.770;2023-07-13T02:22:08;93422.25;;;16.18;100.00
59367;BME280;45163;47.690;11.770;2023-07-13T02:24:34;93419.59;;;16.24;100.00
59367;BME280;45163;47.690;11.770;2023-07-13T02:27:00;93424.63;;;16.26;100.00
59367;BME280;45163;47.690;11.770;2023-07-13T02:29:26;93421.81;;;16.11;100.00
59367;BME280;45163;47.690;11.770;2023-07-13T02:31:52;93426.31;;;15.99;100.00
59367;BME280;45163;47.690;11.770;2023-07-13T02:34:18;93433.09;;;16.22;100.00
59367;BME280;45163;47.690;11.770;2023-07-13T02:36:44;93428.38;;;16.13;100.00
59367;BME280;45163;47.690;11.770;2023-07-13T02:39:11;93446.50;;;16.05;100.00
59367;BME280;45163;47.690;11.770;2023-07-13T02:41:37;93444.34;;;16.09;100.00
59367;BME280;45163;47.690;11.770;2023-07-13T02:44:03;93442.44;;;16.15;100.00
59367;BME280;45163;47.690;11.770;2023-07-13T02:46:30;93444.56;;;16.21;100.00
59367;BME280;45163;47.690;11.770;2023-07-13T02:48:57;93456.94;;;16.25;100.00
59367;BME280;45163;47.690;11.770;2023-07-13T02:51:23;93455.25;;;16.28;100.00
59367;BME280;45163;47.690;11.770;2023-07-13T02:53:49;93451.19;;;16.14;100.00
59367;BME280;45163;47.690;11.770;2023-07-13T02:56:15;93462.59;;;16.22;100.00
59367;BME280;45163;47.690;11.770;2023-07-13T02:58:41;93459.19;;;16.36;100.00
59367;BME280;45163;47.690;11.770;2023-07-13T03:01:09;93461.63;;;16.34;100.00
59367;BME280;45163;47.690;11.770;2023-07-13T03:03:35;93466.38;;;16.33;100.00
59367;BME280;45163;47.690;11.770;2023-07-13T03:06:03;93464.03;;;16.41;100.00
59367;BME280;45163;47.690;11.770;2023-07-13T03:08:31;93463.94;;;16.35;100.00
59367;BME280;45163;47.690;11.770;2023-07-13T03:11:01;93467.34;;;16.21;100.00
59367;BME280;45163;47.690;11.770;2023-07-13T03:13:28;93467.34;;;15.97;100.00
59367;BME280;45163;47.690;11.770;2023-07-13T03:15:54;93472.75;;;16.15;100.00
59367;BME280;45163;47.690;11.770;2023-07-13T03:18:20;93472.41;;;16.23;100.00
59367;BME280;45163;47.690;11.770;2023-07-13T03:20:46;93472.69;;;16.25;100.00
59367;BME280;45163;47.690;11.770;2023-07-13T03:23:12;93467.50;;;16.27;100.00
59367;BME280;45163;47.690;11.770;2023-07-13T03:25:38;93471.47;;;16.26;100.00
59367;BME280;45163;47.690;11.770;2023-07-13T03:28:04;93468.53;;;16.29;100.00
59367;BME280;45163;47.690;11.770;2023-07-13T03:30:31;93485.66;;;16.33;100.00
59367;BME280;45163;47.690;11.770;2023-07-13T03:32:57;93480.03;;;16.28;100.00
59367;BME280;45163;47.690;11.770;2023-07-13T03:35:23;93485.06;;;16.29;100.00
59367;BME280;45163;47.690;11.770;2023-07-13T03:37:49;93483.84;;;16.30;100.00
59367;BME280;45163;47.690;11.770;2023-07-13T03:40:15;93485.50;;;16.04;100.00
59367;BME280;45163;47.690;11.770;2023-07-13T03:42:41;93481.47;;;16.14;100.00
59367;BME280;45163;47.690;11.770;2023-07-13T03:45:07;93486.03;;;16.17;100.00
59367;BME280;45163;47.690;11.770;2023-07-13T03:47:34;93488.28;;;16.28;100.00
59367;BME280;45163;47.690;11.770;2023-07-13T03:49:59;93493.50;;;16.26;100.00
59367;BME280;45163;47.690;11.770;2023-07-13T03:52:25;93480.13;;;16.09;100.00
59367;BME280;45163;47.690;11.770;2023-07-13T03:54:51;93491.53;;;16.17;100.00
59367;BME280;45163;47.690;11.770;2023-07-13T03:57:18;93484.91;;;16.33;100.00
59367;BME280;45163;47.690;11.770;2023-07-13T03:59:44;93498.19;;;16.34;100.00
59367;BME280;45163;47.690;11.770;2023-07-13T04:02:10;93494.50;;;16.37;100.00
59367;BME280;45163;47.690;11.770;2023-07-13T04:04:36;93498.94;;;16.11;100.00
59367;BME280;45163;47.690;11.770;2023-07-13T04:07:06;93503.31;;;16.27;100.00
59367;BME280;45163;47.690;11.770;2023-07-13T04:09:35;93503.03;;;16.15;100.00
59367;BME280;45163;47.690;11.770;2023-07-13T04:12:01;93504.38;;;16.20;100.00
59367;BME280;45163;47.690;11.770;2023-07-13T04:14:27;93510.34;;;16.28;100.00
59367;BME280;45163;47.690;11.770;2023-07-13T04:16:53;93514.44;;;16.32;100.00
59367;BME280;45163;47.690;11.770;2023-07-13T04:19:20;93515.38;;;16.29;100.00
59367;BME280;45163;47.690;11.770;2023-07-13T04:21:46;93514.72;;;16.34;100.00
59367;BME280;45163;47.690;11.770;2023-07-13T04:24:12;93516.88;;;16.39;100.00
59367;BME280;45163;47.690;11.770;2023-07-13T04:26:39;93522.19;;;16.43;100.00
59367;BME280;45163;47.690;11.770;2023-07-13T04:29:07;93518.88;;;16.30;100.00
59367;BME280;45163;47.690;11.770;2023-07-13T04:31:33;93518.88;;;16.30;100.00
59367;BME280;45163;47.690;11.770;2023-07-13T04:33:59;93517.88;;;16.18;100.00
59367;BME280;45163;47.690;11.770;2023-07-13T04:36:25;93522.53;;;16.36;100.00
59367;BME280;45163;47.690;11.770;2023-07-13T04:38:54;93534.91;;;16.40;100.00
59367;BME280;45163;47.690;11.770;2023-07-13T04:41:21;93535.16;;;16.52;100.00
59367;BME280;45163;47.690;11.770;2023-07-13T04:43:47;93534.41;;;16.51;100.00
59367;BME280;45163;47.690;11.770;2023-07-13T04:46:15;93523.84;;;16.50;100.00
59367;BME280;45163;47.690;11.770;2023-07-13T04:48:43;93524.44;;;16.54;100.00
59367;BME280;45163;47.690;11.770;2023-07-13T04:51:09;93531.75;;;16.57;100.00
59367;BME280;45163;47.690;11.770;2023-07-13T04:53:35;93528.09;;;16.60;100.00
59367;BME280;45163;47.690;11.770;2023-07-13T04:56:03;93540.41;;;16.40;100.00
59367;BME280;45163;47.690;11.770;2023-07-13T04:58:29;93534.09;;;16.49;100.00
59367;BME280;45163;47.690;11.770;2023-07-13T05:01:05;93534.91;;;16.40;100.00
59367;BME280;45163;47.690;11.770;2023-07-13T05:03:32;93536.56;;;16.47;100.00
59367;BME280;45163;47.690;11.770;2023-07-13T05:06:03;93533.94;;;16.53;100.00
59367;BME280;45163;47.690;11.770;2023-07-13T05:08:30;93542.25;;;16.67;100.00
59367;BME280;45163;47.690;11.770;2023-07-13T05:10:56;93543.63;;;16.72;100.00
59367;BME280;45163;47.690;11.770;2023-07-13T05:13:22;93538.50;;;16.56;100.00
59367;BME280;45163;47.690;11.770;2023-07-13T05:16:00;93536.03;;;16.58;100.00
59367;BME280;45163;47.690;11.770;2023-07-13T05:18:26;93541.88;;;16.60;100.00
59367;BME280;45163;47.690;11.770;2023-07-13T05:21:04;93535.06;;;16.37;100.00
59367;BME280;45163;47.690;11.770;2023-07-13T05:23:32;93544.06;;;16.47;100.00
59367;BME280;45163;47.690;11.770;2023-07-13T05:25:58;93537.63;;;16.50;100.00
59367;BME280;45163;47.690;11.770;2023-07-13T05:28:25;93543.06;;;16.59;100.00
59367;BME280;45163;47.690;11.770;2023-07-13T05:30:51;93545.47;;;16.75;100.00
59367;BME280;45163;47.690;11.770;2023-07-13T05:33:17;93547.19;;;16.73;100.00
59367;BME280;45163;47.690;11.770;2023-07-13T05:35:43;93552.69;;;16.73;100.00
59367;BME280;45163;47.690;11.770;2023-07-13T05:38:09;93547.53;;;16.56;100.00
59367;BME280;45163;47.690;11.770;2023-07-13T05:40:35;93554.56;;;16.57;100.00
59367;BME280;45163;47.690;11.770;2023-07-13T05:43:01;93548.13;;;16.60;100.00
59367;BME280;45163;47.690;11.770;2023-07-13T05:45:27;93557.09;;;16.79;100.00
59367;BME280;45163;47.690;11.770;2023-07-13T05:47:53;93552.97;;;16.75;100.00
59367;BME280;45163;47.690;11.770;2023-07-13T05:50:19;93549.78;;;16.76;100.00
59367;BME280;45163;47.690;11.770;2023-07-13T05:52:45;93546.69;;;16.74;100.00
59367;BME280;45163;47.690;11.770;2023-07-13T05:55:11;93555.44;;;16.63;100.00
59367;BME280;45163;47.690;11.770;2023-07-13T05:57:37;93547.88;;;16.82;100.00
59367;BME280;45163;47.690;11.770;2023-07-13T06:00:04;93549.06;;;16.90;100.00
59367;BME280;45163;47.690;11.770;2023-07-13T06:02:30;93559.16;;;16.93;100.00
59367;BME280;45163;47.690;11.770;2023-07-13T06:04:56;93557.44;;;16.96;100.00
59367;BME280;45163;47.690;11.770;2023-07-13T06:07:22;93556.03;;;17.01;100.00
59367;BME280;45163;47.690;11.770;2023-07-13T06:09:48;93561.38;;;17.04;100.00
59367;BME280;45163;47.690;11.770;2023-07-13T06:12:14;93562.31;;;17.01;100.00
59367;BME280;45163;47.690;11.770;2023-07-13T06:14:40;93573.88;;;16.90;100.00
59367;BME280;45163;47.690;11.770;2023-07-13T06:17:05;93572.88;;;17.03;100.00
59367;BME280;45163;47.690;11.770;2023-07-13T06:19:31;93569.56;;;17.13;100.00
59367;BME280;45163;47.690;11.770;2023-07-13T06:21:57;93575.97;;;17.20;100.00
59367;BME280;45163;47.690;11.770;2023-07-13T06:24:24;93575.31;;;17.25;100.00
59367;BME280;45163;47.690;11.770;2023-07-13T06:26:51;93580.75;;;17.19;100.00
59367;BME280;45163;47.690;11.770;2023-07-13T06:29:17;93589.13;;;17.01;100.00
59367;BME280;45163;47.690;11.770;2023-07-13T06:31:43;93584.16;;;17.14;100.00
59367;BME280;45163;47.690;11.770;2023-07-13T06:34:09;93583.16;;;17.02;100.00
59367;BME280;45163;47.690;11.770;2023-07-13T06:36:35;93582.56;;;16.98;100.00
59367;BME280;45163;47.690;11.770;2023-07-13T06:39:02;93577.56;;;17.11;100.00
59367;BME280;45163;47.690;11.770;2023-07-13T06:41:28;93576.16;;;16.92;100.00
59367;BME280;45163;47.690;11.770;2023-07-13T06:43:56;93579.09;;;17.12;100.00
59367;BME280;45163;47.690;11.770;2023-07-13T06:46:22;93579.91;;;17.28;100.00
59367;BME280;45163;47.690;11.770;2023-07-13T06:48:49;93584.41;;;17.40;100.00
59367;BME280;45163;47.690;11.770;2023-07-13T06:51:15;93585.69;;;17.54;100.00
59367;BME280;45163;47.690;11.770;2023-07-13T06:53:41;93584.44;;;17.55;100.00
59367;BME280;45163;47.690;11.770;2023-07-13T06:56:10;93578.72;;;17.43;100.00
59367;BME280;45163;47.690;11.770;2023-07-13T06:58:36;93578.16;;;17.54;100.00
59367;BME280;45163;47.690;11.770;2023-07-13T07:01:04;93579.41;;;17.68;100.00
59367;BME280;45163;47.690;11.770;2023-07-13T07:03:30;93582.91;;;17.54;100.00
59367;BME280;45163;47.690;11.770;2023-07-13T07:06:01;93590.59;;;17.74;100.00
59367;BME280;45163;47.690;11.770;2023-07-13T07:08:27;93587.41;;;17.90;100.00
59367;BME280;45163;47.690;11.770;2023-07-13T07:10:53;93585.84;;;17.89;100.00
59367;BME280;45163;47.690;11.770;2023-07-13T07:13:20;93575.13;;;17.52;100.00
59367;BME280;45163;47.690;11.770;2023-07-13T07:15:46;93572.91;;;17.80;100.00
59367;BME280;45163;47.690;11.770;2023-07-13T07:18:12;93580.16;;;17.78;100.00
59367;BME280;45163;47.690;11.770;2023-07-13T07:20:38;93580.97;;;17.69;100.00
59367;BME280;45163;47.690;11.770;2023-07-13T07:23:04;93583.72;;;17.69;100.00
59367;BME280;45163;47.690;11.770;2023-07-13T07:25:30;93593.78;;;17.81;100.00
59367;BME280;45163;47.690;11.770;2023-07-13T07:27:58;93594.53;;;17.82;100.00
59367;BME280;45163;47.690;11.770;2023-07-13T07:30:28;93600.44;;;17.89;100.00
59367;BME280;45163;47.690;11.770;2023-07-13T07:32:53;93597.69;;;18.19;100.00
59367;BME280;45163;47.690;11.770;2023-07-13T07:35:20;93602.47;;;18.19;100.00
59367;BME280;45163;47.690;11.770;2023-07-13T07:37:46;93602.91;;;18.61;100.00
59367;BME280;45163;47.690;11.770;2023-07-13T07:40:12;93601.94;;;18.79;100.00
59367;BME280;45163;47.690;11.770;2023-07-13T07:42:38;93600.81;;;19.06;100.00
59367;BME280;45163;47.690;11.770;2023-07-13T07:45:04;93601.25;;;19.40;100.00
59367;BME280;45163;47.690;11.770;2023-07-13T07:47:31;93579.19;;;19.66;100.00
59367;BME280;45163;47.690;11.770;2023-07-13T07:49:57;93571.22;;;19.53;100.00
59367;BME280;45163;47.690;11.770;2023-07-13T07:52:23;93567.13;;;19.69;100.00
59367;BME280;45163;47.690;11.770;2023-07-13T07:54:49;93567.19;;;19.54;100.00
59367;BME280;45163;47.690;11.770;2023-07-13T07:57:15;93575.75;;;19.77;100.00
59367;BME280;45163;47.690;11.770;2023-07-13T07:59:41;93556.22;;;19.86;100.00
59367;BME280;45163;47.690;11.770;2023-07-13T08:02:10;93552.75;;;19.65;100.00
59367;BME280;45163;47.690;11.770;2023-07-13T08:04:39;93557.06;;;19.98;100.00
59367;BME280;45163;47.690;11.770;2023-07-13T08:07:05;93557.19;;;19.83;100.00
59367;BME280;45163;47.690;11.770;2023-07-13T08:09:32;93553.38;;;19.80;100.00
59367;BME280;45163;47.690;11.770;2023-07-13T08:11:58;93552.53;;;19.95;100.00
59367;BME280;45163;47.690;11.770;2023-07-13T08:14:24;93553.00;;;19.67;100.00
59367;BME280;45163;47.690;11.770;2023-07-13T08:16:50;93554.81;;;19.96;100.00
59367;BME280;45163;47.690;11.770;2023-07-13T08:19:16;93555.97;;;19.63;100.00
59367;BME280;45163;47.690;11.770;2023-07-13T08:21:42;93560.25;;;19.64;100.00
59367;BME280;45163;47.690;11.770;2023-07-13T08:24:09;93570.88;;;19.46;100.00
59367;BME280;45163;47.690;11.770;2023-07-13T08:26:35;93573.56;;;19.20;100.00
59367;BME280;45163;47.690;11.770;2023-07-13T08:29:01;93582.69;;;19.26;100.00
59367;BME280;45163;47.690;11.770;2023-07-13T08:31:28;93585.59;;;19.16;100.00
59367;BME280;45163;47.690;11.770;2023-07-13T08:33:54;93587.19;;;19.23;100.00
59367;BME280;45163;47.690;11.770;2023-07-13T08:36:20;93593.91;;;19.16;100.00
59367;BME280;45163;47.690;11.770;2023-07-13T08:38:46;93592.78;;;18.58;100.00
59367;BME280;45163;47.690;11.770;2023-07-13T08:41:15;93590.06;;;18.44;100.00
59367;BME280;45163;47.690;11.770;2023-07-13T08:43:46;93596.34;;;18.29;100.00
59367;BME280;45163;47.690;11.770;2023-07-13T08:48:56;93606.53;;;18.38;100.00
59367;BME280;45163;47.690;11.770;2023-07-13T08:54:27;93597.56;;;18.43;100.00
59367;BME280;45163;47.690;11.770;2023-07-13T08:56:56;93597.88;;;18.15;100.00
59367;BME280;45163;47.690;11.770;2023-07-13T08:59:27;93591.84;;;18.61;100.00
59367;BME280;45163;47.690;11.770;2023-07-13T09:04:54;93591.47;;;19.04;100.00
59367;BME280;45163;47.690;11.770;2023-07-13T09:07:31;93590.38;;;19.16;100.00
59367;BME280;45163;47.690;11.770;2023-07-13T09:14:58;93590.97;;;18.55;100.00
59367;BME280;45163;47.690;11.770;2023-07-13T09:17:41;93595.50;;;18.88;100.00
59367;BME280;45163;47.690;11.770;2023-07-13T09:22:45;93593.28;;;18.42;100.00
59367;BME280;45163;47.690;11.770;2023-07-13T09:25:33;93605.84;;;18.73;100.00
59367;BME280;45163;47.690;11.770;2023-07-13T09:28:11;93600.97;;;18.82;100.00
59367;BME280;45163;47.690;11.770;2023-07-13T09:33:20;93612.75;;;18.48;100.00
59367;BME280;45163;47.690;11.770;2023-07-13T09:35:46;93614.72;;;18.62;100.00
59367;BME280;45163;47.690;11.770;2023-07-13T09:38:16;93607.19;;;18.62;100.00
59367;BME280;45163;47.690;11.770;2023-07-13T09:41:26;93605.41;;;18.30;100.00
59367;BME280;45163;47.690;11.770;2023-07-13T09:44:14;93612.94;;;18.29;100.00
59367;BME280;45163;47.690;11.770;2023-07-13T09:46:52;93612.34;;;17.96;100.00
59367;BME280;45163;47.690;11.770;2023-07-13T09:49:18;93620.72;;;17.62;100.00
59367;BME280;45163;47.690;11.770;2023-07-13T09:51:44;93626.44;;;17.98;100.00
59367;BME280;45163;47.690;11.770;2023-07-13T09:54:21;93621.03;;;17.64;100.00
59367;BME280;45163;47.690;11.770;2023-07-13T09:56:59;93622.66;;;17.71;100.00
59367;BME280;45163;47.690;11.770;2023-07-13T09:59:33;93635.59;;;17.65;100.00
59367;BME280;45163;47.690;11.770;2023-07-13T10:02:00;93647.53;;;17.23;100.00
59367;BME280;45163;47.690;11.770;2023-07-13T10:04:31;93658.84;;;17.25;100.00
59367;BME280;45163;47.690;11.770;2023-07-13T10:07:12;93648.75;;;17.22;100.00
59367;BME280;45163;47.690;11.770;2023-07-13T10:09:41;93659.84;;;17.13;100.00
59367;BME280;45163;47.690;11.770;2023-07-13T10:12:16;93664.38;;;16.92;100.00
59367;BME280;45163;47.690;11.770;2023-07-13T10:14:43;93664.91;;;17.14;100.00
59367;BME280;45163;47.690;11.770;2023-07-13T10:17:12;93677.13;;;16.89;100.00
59367;BME280;45163;47.690;11.770;2023-07-13T10:19:41;93682.03;;;16.85;100.00
59367;BME280;45163;47.690;11.770;2023-07-13T10:22:14;93689.88;;;16.68;100.00
59367;BME280;45163;47.690;11.770;2023-07-13T10:24:42;93688.28;;;16.43;100.00
59367;BME280;45163;47.690;11.770;2023-07-13T10:27:20;93695.63;;;16.28;100.00
59367;BME280;45163;47.690;11.770;2023-07-13T10:30:14;93694.56;;;16.35;100.00
59367;BME280;45163;47.690;11.770;2023-07-13T10:32:43;93704.66;;;16.38;100.00
59367;BME280;45163;47.690;11.770;2023-07-13T10:35:15;93708.66;;;16.28;100.00
59367;BME280;45163;47.690;11.770;2023-07-13T10:37:53;93718.00;;;16.30;100.00
59367;BME280;45163;47.690;11.770;2023-07-13T10:40:28;93717.53;;;16.32;100.00
59367;BME280;45163;47.690;11.770;2023-07-13T10:42:58;93719.94;;;16.57;100.00
59367;BME280;45163;47.690;11.770;2023-07-13T10:45:26;93724.34;;;16.64;100.00
59367;BME280;45163;47.690;11.770;2023-07-13T10:47:55;93719.59;;;16.64;100.00
59367;BME280;45163;47.690;11.770;2023-07-13T10:50:23;93730.34;;;17.05;100.00
59367;BME280;45163;47.690;11.770;2023-07-13T10:52:55;93726.13;;;17.28;100.00
59367;BME280;45163;47.690;11.770;2023-07-13T11:03:17;93719.22;;;17.32;100.00
59367;BME280;45163;47.690;11.770;2023-07-13T11:05:48;93721.31;;;17.37;100.00
59367;BME280;45163;47.690;11.770;2023-07-13T11:08:21;93716.94;;;17.55;100.00
59367;BME280;45163;47.690;11.770;2023-07-13T11:11:00;93728.13;;;17.51;100.00
59367;BME280;45163;47.690;11.770;2023-07-13T11:21:25;93716.53;;;17.71;100.00
59367;BME280;45163;47.690;11.770;2023-07-13T11:24:01;93716.44;;;17.89;100.00
59367;BME280;45163;47.690;11.770;2023-07-13T11:31:51;93692.63;;;18.75;100.00
59367;BME280;45163;47.690;11.770;2023-07-13T11:34:27;93687.31;;;19.22;100.00
59367;BME280;45163;47.690;11.770;2023-07-13T11:36:53;93681.03;;;19.41;100.00
59367;BME280;45163;47.690;11.770;2023-07-13T11:39:27;93684.97;;;19.90;100.00
59367;BME280;45163;47.690;11.770;2023-07-13T11:42:07;93656.81;;;19.98;100.00
59367;BME280;45163;47.690;11.770;2023-07-13T11:44:35;93650.38;;;20.06;100.00
59367;BME280;45163;47.690;11.770;2023-07-13T11:47:14;93647.19;;;20.13;100.00
59367;BME280;45163;47.690;11.770;2023-07-13T11:49:49;93642.22;;;20.75;100.00
59367;BME280;45163;47.690;11.770;2023-07-13T11:52:23;93644.25;;;21.12;100.00
59367;BME280;45163;47.690;11.770;2023-07-13T11:54:55;93638.94;;;21.46;100.00
59367;BME280;45163;47.690;11.770;2023-07-13T11:57:28;93633.59;;;21.36;100.00
59367;BME280;45163;47.690;11.770;2023-07-13T11:59:57;93620.41;;;21.85;100.00
59367;BME280;45163;47.690;11.770;2023-07-13T12:02:32;93622.06;;;23.27;100.00
59367;BME280;45163;47.690;11.770;2023-07-13T12:05:00;93613.34;;;23.70;100.00
59367;BME280;45163;47.690;11.770;2023-07-13T12:07:30;93595.31;;;23.88;100.00
59367;BME280;45163;47.690;11.770;2023-07-13T12:12:36;93584.34;;;24.01;100.00
59367;BME280;45163;47.690;11.770;2023-07-13T12:15:07;93570.03;;;24.57;100.00
59367;BME280;45163;47.690;11.770;2023-07-13T12:17:34;93572.00;;;23.85;100.00
59367;BME280;45163;47.690;11.770;2023-07-13T12:20:09;93569.28;;;23.57;100.00
59367;BME280;45163;47.690;11.770;2023-07-13T12:22:46;93567.06;;;25.04;100.00
59367;BME280;45163;47.690;11.770;2023-07-13T12:25:13;93561.53;;;25.72;100.00
59367;BME280;45163;47.690;11.770;2023-07-13T12:27:40;93573.31;;;27.37;100.00
59367;BME280;45163;47.690;11.770;2023-07-13T12:30:24;93553.59;;;26.83;100.00
59367;BME280;45163;47.690;11.770;2023-07-13T12:32:59;93556.25;;;26.44;100.00
59367;BME280;45163;47.690;11.770;2023-07-13T12:35:28;93554.69;;;26.94;100.00
59367;BME280;45163;47.690;11.770;2023-07-13T12:37:57;93559.44;;;26.99;100.00
59367;BME280;45163;47.690;11.770;2023-07-13T12:40:35;93561.53;;;27.12;100.00
59367;BME280;45163;47.690;11.770;2023-07-13T12:43:03;93562.72;;;27.16;100.00
59367;BME280;45163;47.690;11.770;2023-07-13T12:45:30;93556.31;;;26.57;100.00
59367;BME280;45163;47.690;11.770;2023-07-13T12:48:19;93566.25;;;26.39;100.00
59367;BME280;45163;47.690;11.770;2023-07-13T12:50:49;93561.84;;;25.68;100.00
59367;BME280;45163;47.690;11.770;2023-07-13T12:53:20;93565.66;;;26.92;100.00
59367;BME280;45163;47.690;11.770;2023-07-13T12:55:50;93575.28;;;26.13;100.00
59367;BME280;45163;47.690;11.770;2023-07-13T12:58:37;93569.47;;;24.64;100.00
59367;BME280;45163;47.690;11.770;2023-07-13T13:01:05;93557.31;;;25.41;100.00
59367;BME280;45163;47.690;11.770;2023-07-13T13:03:37;93553.09;;;26.98;100.00
59367;BME280;45163;47.690;11.770;2023-07-13T13:08:32;93557.44;;;27.92;100.00
59367;BME280;45163;47.690;11.770;2023-07-13T13:10:58;93563.63;;;27.64;93.87
59367;BME280;45163;47.690;11.770;2023-07-13T13:13:24;93559.53;;;26.80;95.98
59367;BME280;45163;47.690;11.770;2023-07-13T13:15:50;93546.53;;;29.12;93.04
59367;BME280;45163;47.690;11.770;2023-07-13T13:18:18;93558.09;;;28.88;93.96
59367;BME280;45163;47.690;11.770;2023-07-13T13:20:45;93550.47;;;27.86;100.00
59367;BME280;45163;47.690;11.770;2023-07-13T13:23:17;93544.94;;;29.24;95.83
59367;BME280;45163;47.690;11.770;2023-07-13T13:25:45;93553.88;;;29.15;89.95
59367;BME280;45163;47.690;11.770;2023-07-13T13:28:16;93555.78;;;29.20;87.31
59367;BME280;45163;47.690;11.770;2023-07-13T13:30:45;93553.97;;;29.59;82.01
59367;BME280;45163;47.690;11.770;2023-07-13T13:33:13;93556.81;;;27.86;92.89
59367;BME280;45163;47.690;11.770;2023-07-13T13:35:41;93555.00;;;26.90;91.60
59367;BME280;45163;47.690;11.770;2023-07-13T13:38:14;93554.34;;;27.56;100.00